Time;durP1;ratioP1;P1;durP2;ratioP2;P2;SDS_P1;SDS_P2;PMS_P1;PMS_P2;Temp;Humidity;BMP_temperature;BMP_pressure;BME280_temperature;BME280_humidity;BME280_pressure;Samples;Min_cycle;Max_cycle;Signal;HPM_P1;HPM_P2
2022/09/16 00:01:19;;;;;;;12.83;5.43;;;15.00;99.90;;;;;;4992517;28;20430;-56
2022/09/16 00:03:46;;;;;;;9.45;5.10;;;15.10;99.90;;;;;;4993256;28;20848;-56
2022/09/16 00:06:37;;;;;;;10.35;5.63;;;15.20;99.90;;;;;;4993121;28;20473;-56
2022/09/16 00:09:03;;;;;;;11.43;5.50;;;15.20;99.90;;;;;;4991460;28;20853;-56
2022/09/16 00:11:33;;;;;;;13.10;5.93;;;15.20;99.90;;;;;;4992173;28;20412;-56
2022/09/16 00:13:59;;;;;;;10.17;5.23;;;15.30;99.90;;;;;;4992930;28;20505;-56
2022/09/16 00:16:26;;;;;;;11.77;5.15;;;15.30;99.90;;;;;;4991794;28;20470;-55
2022/09/16 00:18:54;;;;;;;12.97;5.63;;;15.30;99.90;;;;;;4992665;28;20471;-55
2022/09/16 00:21:20;;;;;;;13.70;5.30;;;15.40;82.80;;;;;;4974804;28;20477;-55
2022/09/16 00:23:45;;;;;;;9.67;4.70;;;15.40;97.60;;;;;;4992634;28;20387;-55
2022/09/16 00:26:11;;;;;;;9.90;5.35;;;15.30;96.40;;;;;;4992347;28;20867;-56
2022/09/16 00:28:37;;;;;;;10.60;5.30;;;15.40;99.90;;;;;;4991796;28;20919;-56
2022/09/16 00:31:03;;;;;;;10.90;5.30;;;15.40;97.60;;;;;;4992060;28;20557;-56
2022/09/16 00:33:28;;;;;;;10.77;5.20;;;15.40;93.50;;;;;;4991904;28;20395;-56
2022/09/16 00:36:26;;;;;;;10.50;5.50;;;15.40;99.90;;;;;;4992397;28;20398;-56
2022/09/16 00:38:53;;;;;;;12.48;5.95;;;15.40;59.10;;;;;;4970084;28;20938;-56
2022/09/16 00:41:26;;;;;;;12.30;5.93;;;15.50;17.80;;;;;;4991779;28;20457;-55
2022/09/16 00:43:58;;;;;;;9.57;5.15;;;15.50;15.50;;;;;;4992188;28;20385;-55
2022/09/16 00:46:29;;;;;;;10.88;5.28;;;15.50;15.40;;;;;;4992173;28;20389;-55
2022/09/16 00:48:59;;;;;;;10.27;5.45;;;15.50;35.90;;;;;;4991955;28;20394;-55
2022/09/16 00:51:25;;;;;;;11.18;5.65;;;15.50;44.60;;;;;;4991387;28;20409;-55
2022/09/16 00:53:59;;;;;;;12.73;5.70;;;15.50;66.50;;;;;;4992083;28;20469;-55
2022/09/16 00:56:26;;;;;;;12.55;5.45;;;15.50;90.10;;;;;;4992068;28;20386;-55
2022/09/16 00:59:27;;;;;;;9.50;4.90;;;15.50;63.40;;;;;;4992094;28;20454;-55
2022/09/16 01:01:55;;;;;;;11.93;5.50;;;15.50;90.60;;;;;;4986253;28;20480;-55
2022/09/16 01:04:25;;;;;;;10.82;5.32;;;15.50;86.60;;;;;;4991254;28;20425;-55
2022/09/16 01:06:51;;;;;;;9.20;5.27;;;15.50;90.70;;;;;;4992183;28;20378;-55
2022/09/16 01:09:21;;;;;;;12.85;5.40;;;15.50;57.50;;;;;;4991662;28;20482;-55
2022/09/16 01:11:47;;;;;;;10.98;5.57;;;15.50;83.60;;;;;;4991820;28;20418;-55
2022/09/16 01:14:59;;;;;;;10.70;5.80;;;15.50;52.10;;;;;;4992003;28;20390;-55
2022/09/16 01:17:09;;;;;;;10.90;5.20;;;15.60;57.60;;;;;;4970772;28;20400;-55
2022/09/16 01:19:45;;;;;;;9.50;4.80;;;15.50;62.30;;;;;;4974163;28;20394;-55
2022/09/16 01:22:37;;;;;;;12.35;5.75;;;15.50;91.90;;;;;;4992341;28;20378;-55
2022/09/16 01:25:49;;;;;;;11.73;5.20;;;15.60;64.90;;;;;;4991501;28;20430;-55
2022/09/16 01:28:17;;;;;;;10.30;5.70;;;15.50;91.70;;;;;;4990654;28;20425;-55
2022/09/16 01:31:15;;;;;;;9.50;5.00;;;15.60;76.00;;;;;;4990870;28;20438;-55
2022/09/16 01:33:56;;;;;;;11.97;5.17;;;15.50;98.60;;;;;;4976565;28;20454;-55
2022/09/16 01:36:34;;;;;;;12.52;5.32;;;15.40;99.90;;;;;;4991155;28;20386;-55
2022/09/16 01:39:15;;;;;;;13.10;6.20;;;15.40;77.80;;;;;;4991400;28;20481;-55
2022/09/16 01:41:59;;;;;;;10.60;5.37;;;15.40;50.00;;;;;;4990482;28;20465;-55
2022/09/16 01:44:45;;;;;;;12.30;5.37;;;15.30;44.20;;;;;;4990019;28;20512;-55
2022/09/16 01:47:44;;;;;;;11.75;5.25;;;15.10;61.70;;;;;;4991104;28;20539;-55
2022/09/16 01:50:43;;;;;;;11.27;4.55;;;15.10;86.50;;;;;;4946075;28;20875;-55
2022/09/16 01:53:12;;;;;;;8.70;4.80;;;15.10;81.00;;;;;;4975017;28;20395;-55
2022/09/16 01:55:52;;;;;;;12.25;4.85;;;15.10;71.40;;;;;;4990322;28;20386;-55
2022/09/16 01:58:26;;;;;;;11.57;5.30;;;15.10;88.80;;;;;;4991065;28;20378;-55
2022/09/16 02:01:00;;;;;;;12.05;5.72;;;15.00;78.60;;;;;;4990376;28;20808;-56
2022/09/16 02:03:33;;;;;;;11.50;4.80;;;14.90;54.00;;;;;;4990419;28;20792;-55
2022/09/16 02:06:04;;;;;;;11.93;5.45;;;14.80;79.30;;;;;;4991400;28;20503;-55
2022/09/16 02:08:40;;;;;;;11.30;5.50;;;14.80;91.30;;;;;;4989816;28;20427;-55
2022/09/16 02:11:09;;;;;;;10.50;4.97;;;14.90;42.10;;;;;;4991231;28;20448;-55
2022/09/16 02:13:41;;;;;;;11.27;5.50;;;14.70;47.10;;;;;;4989894;28;20394;-55
2022/09/16 02:16:15;;;;;;;9.80;5.05;;;14.70;56.40;;;;;;4990755;28;20445;-55
2022/09/16 02:18:43;;;;;;;10.52;5.43;;;14.70;73.10;;;;;;4990218;28;20449;-55
2022/09/16 02:21:14;;;;;;;10.20;4.80;;;14.60;97.90;;;;;;4990554;28;20387;-55
2022/09/16 02:23:47;;;;;;;10.83;6.07;;;14.60;73.40;;;;;;4989881;28;20383;-55
2022/09/16 02:26:17;;;;;;;11.00;4.82;;;14.60;90.50;;;;;;4991108;28;20913;-55
2022/09/16 02:28:46;;;;;;;9.10;4.60;;;14.60;94.30;;;;;;4990194;28;20405;-55
2022/09/16 02:31:14;;;;;;;12.48;5.30;;;14.60;99.30;;;;;;4990257;28;20865;-55
2022/09/16 02:33:59;;;;;;;15.00;5.38;;;14.60;98.40;;;;;;4989696;28;20390;-55
2022/09/16 02:36:26;;;;;;;12.73;5.30;;;14.50;99.90;;;;;;4989747;28;20752;-55
2022/09/16 02:38:58;;;;;;;13.63;6.22;;;14.50;99.90;;;;;;4991051;28;20394;-55
2022/09/16 02:41:24;;;;;;;11.73;5.20;;;14.40;99.90;;;;;;4989759;28;20473;-54
2022/09/16 02:43:49;;;;;;;11.10;5.00;;;14.30;99.90;;;;;;4990146;28;20512;-55
2022/09/16 02:46:15;;;;;;;10.17;4.97;;;14.30;99.90;;;;;;4990355;28;20386;-55
2022/09/16 02:49:03;;;;;;;10.98;5.50;;;14.20;99.90;;;;;;4989450;28;20386;-55
2022/09/16 02:51:57;;;;;;;10.18;5.05;;;14.20;99.90;;;;;;4989559;28;20421;-55
2022/09/16 02:54:33;;;;;;;12.00;5.30;;;14.10;99.90;;;;;;4990212;28;20848;-54
2022/09/16 02:56:59;;;;;;;11.32;5.00;;;14.00;99.90;;;;;;4990038;28;20734;-55
2022/09/16 02:59:24;;;;;;;10.38;5.07;;;14.00;99.90;;;;;;4989691;28;20413;-54
2022/09/16 03:01:50;;;;;;;9.60;4.60;;;14.00;99.90;;;;;;4990229;28;20763;-55
2022/09/16 03:04:18;;;;;;;10.43;5.03;;;14.00;99.90;;;;;;4989674;28;20394;-55
2022/09/16 03:06:45;;;;;;;11.38;5.47;;;14.10;99.90;;;;;;4989779;28;20382;-54
2022/09/16 03:09:12;;;;;;;8.70;4.45;;;14.00;99.90;;;;;;4989856;28;20397;-55
2022/09/16 03:12:00;;;;;;;10.57;4.40;;;14.10;99.90;;;;;;4989511;28;20523;-54
2022/09/16 03:14:55;;;;;;;10.52;4.15;;;14.10;99.90;;;;;;4972237;28;20406;-54
2022/09/16 03:17:29;;;;;;;11.15;4.20;;;14.20;99.90;;;;;;4992255;28;20495;-55
2022/09/16 03:20:22;;;;;;;9.73;3.90;;;14.20;99.90;;;;;;4994180;28;20442;-55
2022/09/16 03:22:50;;;;;;;8.17;3.57;;;14.30;70.40;;;;;;4993598;28;20398;-55
2022/09/16 03:25:43;;;;;;;8.00;3.90;;;14.50;23.40;;;;;;4993304;28;20401;-54
2022/09/16 03:28:30;;;;;;;9.00;3.80;;;14.50;6.30;;;;;;4993728;28;20409;-55
2022/09/16 03:31:07;;;;;;;7.60;3.60;;;14.50;15.10;;;;;;4992078;28;20533;-55
2022/09/16 03:33:43;;;;;;;9.20;3.92;;;14.50;17.70;;;;;;4992550;28;20474;-55
2022/09/16 03:36:13;;;;;;;9.25;3.70;;;14.60;17.50;;;;;;4993955;28;20451;-55
2022/09/16 03:38:40;;;;;;;8.80;3.70;;;14.50;3.10;;;;;;4992777;28;20752;-54
2022/09/16 03:41:08;;;;;;;8.75;4.47;;;14.50;5.00;;;;;;4989850;28;20963;-55
2022/09/16 03:43:34;;;;;;;11.70;4.00;;;14.50;1.00;;;;;;4989987;28;20481;-55
2022/09/16 03:46:00;;;;;;;9.60;3.92;;;14.50;1.00;;;;;;4993364;28;20765;-55
2022/09/16 03:48:25;;;;;;;10.87;4.10;;;14.60;1.00;;;;;;4992355;28;20801;-54
2022/09/16 03:50:51;;;;;;;10.48;4.10;;;14.60;14.30;;;;;;4990195;28;20406;-55
2022/09/16 03:53:16;;;;;;;10.10;4.20;;;14.60;38.90;;;;;;4992554;28;20954;-55
2022/09/16 03:55:42;;;;;;;11.70;4.33;;;14.60;31.40;;;;;;4974687;28;20390;-57
2022/09/16 03:58:08;;;;;;;8.50;3.87;;;14.70;16.10;;;;;;4992864;28;20386;-55
2022/09/16 04:00:33;;;;;;;9.48;4.40;;;14.60;42.60;;;;;;4991941;28;20834;-55
2022/09/16 04:03:00;;;;;;;8.30;4.27;;;14.60;45.20;;;;;;4992119;28;20414;-56
2022/09/16 04:05:26;;;;;;;8.55;3.80;;;14.70;33.80;;;;;;4991634;28;20383;-54
2022/09/16 04:07:51;;;;;;;8.68;4.32;;;14.80;24.70;;;;;;4989865;28;20542;-55
2022/09/16 04:10:17;;;;;;;9.30;4.10;;;14.80;10.70;;;;;;4992570;28;20411;-55
2022/09/16 04:12:43;;;;;;;8.45;4.30;;;14.80;1.90;;;;;;4991612;28;20402;-55
2022/09/16 04:15:09;;;;;;;9.13;4.10;;;14.90;1.00;;;;;;4992607;28;20375;-55
2022/09/16 04:17:36;;;;;;;9.52;4.45;;;14.90;1.00;;;;;;4991923;28;20856;-55
2022/09/16 04:20:02;;;;;;;8.25;4.22;;;14.90;1.00;;;;;;4992350;28;20399;-55
2022/09/16 04:22:30;;;;;;;11.20;4.10;;;14.90;1.00;;;;;;4991624;28;20389;-55
2022/09/16 04:24:56;;;;;;;9.55;3.92;;;14.80;1.00;;;;;;4992284;28;20394;-55
2022/09/16 04:27:22;;;;;;;9.57;4.00;;;14.80;7.50;;;;;;4991199;28;20387;-55
2022/09/16 04:29:48;;;;;;;8.13;3.67;;;14.80;28.30;;;;;;4992474;28;20666;-55
2022/09/16 04:32:14;;;;;;;8.43;4.00;;;14.80;40.20;;;;;;4972520;28;20447;-55
2022/09/16 04:34:40;;;;;;;9.43;4.30;;;14.90;33.60;;;;;;4991611;28;20420;-56
2022/09/16 04:37:05;;;;;;;8.05;3.78;;;14.80;52.20;;;;;;4991961;28;20441;-56
2022/09/16 04:39:31;;;;;;;8.57;3.60;;;14.80;40.10;;;;;;4989017;28;20389;-55
2022/09/16 04:41:58;;;;;;;9.07;4.40;;;14.70;61.40;;;;;;4991990;28;20768;-55
2022/09/16 04:44:25;;;;;;;9.55;4.32;;;14.70;99.90;;;;;;4991346;28;20426;-53
2022/09/16 04:46:51;;;;;;;8.27;4.10;;;14.70;99.90;;;;;;4991352;28;20390;-54
2022/09/16 04:49:16;;;;;;;9.07;4.43;;;14.70;99.90;;;;;;4991376;28;20450;-55
2022/09/16 04:51:42;;;;;;;8.70;4.07;;;14.70;99.90;;;;;;4991343;28;20413;-54
2022/09/16 04:54:08;;;;;;;9.90;4.40;;;14.60;99.90;;;;;;4992322;28;20395;-56
2022/09/16 04:56:34;;;;;;;9.57;4.40;;;14.70;99.90;;;;;;4991493;28;20390;-57
2022/09/16 04:59:01;;;;;;;11.17;4.10;;;14.70;94.70;;;;;;4991980;28;20401;-57
2022/09/16 05:01:33;;;;;;;10.73;4.90;;;14.80;99.90;;;;;;4990906;28;20410;-56
2022/09/16 05:04:01;;;;;;;10.98;4.60;;;14.90;99.90;;;;;;4992274;28;20387;-57
2022/09/16 05:06:33;;;;;;;10.02;5.10;;;15.00;47.40;;;;;;4991389;28;20444;-56
2022/09/16 05:08:59;;;;;;;11.60;4.93;;;15.00;2.10;;;;;;4992152;28;20870;-57
2022/09/16 05:11:27;;;;;;;9.90;4.50;;;15.00;2.70;;;;;;4991415;28;20418;-55
2022/09/16 05:13:54;;;;;;;9.38;4.90;;;14.80;25.60;;;;;;4991808;28;20387;-56
2022/09/16 05:16:22;;;;;;;11.20;4.75;;;14.90;78.40;;;;;;4991710;28;20542;-54
2022/09/16 05:18:49;;;;;;;12.38;4.70;;;14.80;51.20;;;;;;4990770;28;20454;-54
2022/09/16 05:21:17;;;;;;;8.38;4.38;;;14.80;99.90;;;;;;4991744;28;20407;-57
2022/09/16 05:23:44;;;;;;;9.85;4.50;;;15.00;99.90;;;;;;4990864;28;20405;-57
2022/09/16 05:26:11;;;;;;;9.50;4.82;;;15.10;73.00;;;;;;4991674;28;20382;-55
2022/09/16 05:28:38;;;;;;;12.90;5.05;;;15.20;36.80;;;;;;4990514;28;20383;-55
2022/09/16 05:31:16;;;;;;;9.50;4.97;;;15.30;8.40;;;;;;4990953;28;20433;-54
2022/09/16 05:34:02;;;;;;;9.20;4.50;;;15.40;6.70;;;;;;4990508;28;20426;-54
2022/09/16 05:36:30;;;;;;;8.40;4.25;;;15.40;1.00;;;;;;4989963;28;20434;-54
2022/09/16 05:38:56;;;;;;;10.90;4.57;;;15.40;1.00;;;;;;4990437;28;20394;-55
2022/09/16 05:41:22;;;;;;;10.48;4.80;;;15.50;1.00;;;;;;4991186;28;20386;-54
2022/09/16 05:43:48;;;;;;;10.95;4.50;;;15.50;1.00;;;;;;4991329;28;20727;-57
2022/09/16 05:46:19;;;;;;;10.97;4.50;;;15.40;1.00;;;;;;4991145;28;20856;-55
2022/09/16 05:48:45;;;;;;;9.80;4.30;;;16.10;1.00;;;;;;4990609;28;20466;-56
2022/09/16 05:51:14;;;;;;;12.02;4.60;;;15.50;1.00;;;;;;4991507;28;20420;-57
2022/09/16 05:53:39;;;;;;;10.55;4.78;;;15.50;1.00;;;;;;4990436;28;20402;-57
2022/09/16 05:56:20;;;;;;;10.60;4.60;;;15.30;1.00;;;;;;4990994;28;20378;-57
2022/09/16 05:58:46;;;;;;;12.57;4.20;;;15.30;1.00;;;;;;4990251;28;20478;-57
2022/09/16 06:01:18;;;;;;;11.43;4.35;;;15.40;1.00;;;;;;4990424;28;20500;-57
2022/09/16 06:03:46;;;;;;;9.90;4.38;;;15.40;1.00;;;;;;4987593;28;20477;-57
2022/09/16 06:06:26;;;;;;;9.80;4.10;;;15.40;1.00;;;;;;4987491;28;20938;-57
2022/09/16 06:08:57;;;;;;;9.70;4.25;;;15.40;1.00;;;;;;4990710;28;20418;-57
2022/09/16 06:11:23;;;;;;;8.18;3.50;;;15.30;1.00;;;;;;4990429;28;20402;-57
2022/09/16 06:14:00;;;;;;;8.27;3.90;;;15.30;1.00;;;;;;4990826;28;20430;-57
2022/09/16 06:16:28;;;;;;;9.30;3.70;;;15.30;1.00;;;;;;4990266;28;20730;-54
2022/09/16 06:18:56;;;;;;;8.90;3.53;;;15.30;1.00;;;;;;4990753;28;20927;-57
2022/09/16 06:21:22;;;;;;;8.82;3.40;;;15.20;1.00;;;;;;4990771;28;20425;-57
2022/09/16 06:23:47;;;;;;;7.78;3.50;;;15.10;1.00;;;;;;4989537;28;20798;-57
2022/09/16 06:26:16;;;;;;;8.10;3.43;;;15.20;1.00;;;;;;4990396;28;20532;-57
2022/09/16 06:28:42;;;;;;;8.02;3.47;;;15.20;1.00;;;;;;4989627;28;20759;-57
2022/09/16 06:31:11;;;;;;;10.30;3.50;;;15.20;1.00;;;;;;4990669;28;20426;-57
2022/09/16 06:33:38;;;;;;;8.65;3.30;;;15.30;1.00;;;;;;4989643;28;20900;-57
2022/09/16 06:36:06;;;;;;;12.30;4.50;;;15.10;1.00;;;;;;4990400;28;20839;-57
2022/09/16 06:38:31;;;;;;;9.43;4.30;;;15.10;1.00;;;;;;4989898;28;20382;-57
2022/09/16 06:41:02;;;;;;;11.17;4.40;;;15.20;1.00;;;;;;4990242;28;20474;-58
2022/09/16 06:43:28;;;;;;;11.10;4.57;;;15.30;1.00;;;;;;4990049;28;20396;-57
2022/09/16 06:45:58;;;;;;;10.20;4.10;;;15.40;1.00;;;;;;4990468;28;20374;-57
2022/09/16 06:48:25;;;;;;;9.10;4.00;;;15.20;1.00;;;;;;4990449;28;20382;-57
2022/09/16 06:50:58;;;;;;;9.63;4.35;;;15.20;1.00;;;;;;4991502;28;20422;-57
2022/09/16 06:53:24;;;;;;;9.38;4.30;;;15.20;1.00;;;;;;4994236;28;20399;-57
2022/09/16 06:55:49;;;;;;;9.43;3.77;;;15.10;1.00;;;;;;4993841;28;20922;-57
2022/09/16 06:58:15;;;;;;;8.90;4.00;;;15.00;9.80;;;;;;4994698;28;20398;-57
2022/09/16 07:00:40;;;;;;;9.60;4.22;;;15.00;65.10;;;;;;4993547;28;20402;-57
2022/09/16 07:03:06;;;;;;;9.53;4.30;;;15.00;61.40;;;;;;4994292;28;20421;-56
2022/09/16 07:05:32;;;;;;;10.70;4.10;;;15.10;50.00;;;;;;4992967;28;20843;-57
2022/09/16 07:07:57;;;;;;;10.05;4.03;;;15.20;61.70;;;;;;4994020;28;20486;-56
2022/09/16 07:10:24;;;;;;;9.37;4.30;;;15.20;1.00;;;;;;4994287;28;20402;-57
2022/09/16 07:12:49;;;;;;;9.52;4.32;;;14.90;25.80;;;;;;4993168;28;20409;-57
2022/09/16 07:15:15;;;;;;;9.20;3.88;;;14.90;50.60;;;;;;4993177;28;20891;-56
2022/09/16 07:17:40;;;;;;;10.30;4.00;;;14.60;84.10;;;;;;4993442;28;20394;-54
2022/09/16 07:20:06;;;;;;;10.50;4.00;;;14.30;99.90;;;;;;4993739;28;20509;-55
2022/09/16 07:22:32;;;;;;;10.73;4.15;;;14.40;99.90;;;;;;4992427;28;20381;-55
2022/09/16 07:24:57;;;;;;;11.30;4.50;;;14.50;99.90;;;;;;4993805;28;20493;-55
2022/09/16 07:27:23;;;;;;;10.30;4.50;;;14.50;99.90;;;;;;4993862;28;20414;-54
2022/09/16 07:29:49;;;;;;;9.37;4.30;;;14.50;99.90;;;;;;4993089;28;20413;-54
2022/09/16 07:32:14;;;;;;;10.05;4.40;;;14.50;99.90;;;;;;4993572;28;20425;-55
2022/09/16 07:34:40;;;;;;;8.98;4.47;;;14.40;99.90;;;;;;4992860;28;20748;-54
2022/09/16 07:37:05;;;;;;;11.73;4.37;;;14.50;99.90;;;;;;4993968;28;20398;-55
2022/09/16 07:39:31;;;;;;;10.07;4.30;;;14.50;99.90;;;;;;4993166;28;20388;-54
2022/09/16 07:41:57;;;;;;;8.10;4.10;;;14.50;99.90;;;;;;4993262;28;20383;-55
2022/09/16 07:44:25;;;;;;;10.23;4.35;;;14.50;99.90;;;;;;4993335;28;20474;-54
2022/09/16 07:46:50;;;;;;;8.70;4.32;;;14.50;99.90;;;;;;4992476;28;20454;-54
2022/09/16 07:49:16;;;;;;;10.70;4.75;;;14.40;99.90;;;;;;4992992;28;20390;-55
2022/09/16 07:51:42;;;;;;;8.83;4.37;;;14.20;99.90;;;;;;4992186;28;20417;-55
2022/09/16 07:54:11;;;;;;;10.40;4.60;;;14.10;99.90;;;;;;4993279;28;20394;-54
2022/09/16 07:56:39;;;;;;;10.77;5.28;;;14.10;99.90;;;;;;4992738;28;20716;-55
2022/09/16 07:59:06;;;;;;;11.13;5.53;;;14.30;99.90;;;;;;4993411;28;20382;-54
2022/09/16 08:01:32;;;;;;;11.15;4.78;;;14.50;99.90;;;;;;4991742;28;20414;-54
2022/09/16 08:03:59;;;;;;;7.30;4.00;;;14.70;99.90;;;;;;4992562;28;20394;-54
2022/09/16 08:06:28;;;;;;;9.60;4.82;;;14.80;99.90;;;;;;4993033;28;20397;-57
2022/09/16 08:08:56;;;;;;;10.60;5.03;;;14.80;99.90;;;;;;4992544;28;20379;-54
2022/09/16 08:11:22;;;;;;;12.80;5.20;;;14.80;99.90;;;;;;4992801;28;20410;-54
2022/09/16 08:13:48;;;;;;;9.93;4.33;;;14.70;99.90;;;;;;4992254;28;21008;-54
2022/09/16 08:16:17;;;;;;;12.27;5.00;;;14.60;99.90;;;;;;4993362;28;20390;-54
2022/09/16 08:18:44;;;;;;;9.70;5.20;;;14.60;99.90;;;;;;4991883;28;20725;-54
2022/09/16 08:21:18;;;;;;;9.43;4.32;;;14.60;99.90;;;;;;4992830;28;20879;-54
2022/09/16 08:23:45;;;;;;;13.30;5.00;;;14.70;99.90;;;;;;4992064;28;20375;-54
2022/09/16 08:26:12;;;;;;;8.70;4.40;;;14.60;99.90;;;;;;4993013;28;20539;-54
2022/09/16 08:28:40;;;;;;;8.95;4.47;;;14.40;99.90;;;;;;4991922;28;20481;-54
2022/09/16 08:31:07;;;;;;;9.27;4.00;;;14.50;99.90;;;;;;4992483;28;20430;-54
2022/09/16 08:33:33;;;;;;;12.18;4.80;;;14.70;99.90;;;;;;4991879;28;20411;-55
2022/09/16 08:36:00;;;;;;;9.85;4.80;;;14.80;99.90;;;;;;4992317;28;20435;-55
2022/09/16 08:38:27;;;;;;;10.00;4.18;;;14.90;99.90;;;;;;4991917;28;20379;-54
2022/09/16 08:41:16;;;;;;;9.13;4.10;;;15.10;99.90;;;;;;4991910;28;20383;-55
2022/09/16 08:43:53;;;;;;;9.70;4.13;;;15.20;35.30;;;;;;4972184;28;20806;-55
2022/09/16 08:46:31;;;;;;;9.05;3.85;;;15.20;27.80;;;;;;4992767;28;20418;-55
2022/09/16 08:49:15;;;;;;;10.32;3.78;;;15.40;51.40;;;;;;4992377;28;20383;-55
2022/09/16 08:51:41;;;;;;;9.30;3.78;;;15.30;1.00;;;;;;4991215;28;20821;-55
2022/09/16 08:54:17;;;;;;;11.30;4.10;;;15.30;1.00;;;;;;4992102;28;20387;-55
2022/09/16 08:56:44;;;;;;;10.43;4.55;;;15.40;10.00;;;;;;4991638;28;20894;-54
2022/09/16 08:59:16;;;;;;;11.55;4.20;;;15.60;1.00;;;;;;4991867;28;20714;-54
2022/09/16 09:01:51;;;;;;;9.00;4.10;;;15.40;1.00;;;;;;4991480;28;20875;-54
2022/09/16 09:04:17;;;;;;;8.77;3.85;;;15.30;1.00;;;;;;4992175;28;20827;-56
2022/09/16 09:06:54;;;;;;;8.02;3.90;;;15.30;1.00;;;;;;4991426;28;20391;-56
2022/09/16 09:09:26;;;;;;;10.77;4.50;;;15.30;1.00;;;;;;4991722;28;20426;-57
2022/09/16 09:12:09;;;;;;;10.18;4.53;;;15.40;5.80;;;;;;4990701;28;20418;-57
2022/09/16 09:14:57;;;;;;;8.70;4.50;;;15.50;37.60;;;;;;4991539;28;20391;-56
2022/09/16 09:17:34;;;;;;;9.20;4.10;;;15.70;1.30;;;;;;4991856;28;20400;-56
2022/09/16 09:20:17;;;;;;;8.32;3.95;;;15.80;1.00;;;;;;4992037;28;20394;-57
2022/09/16 09:23:20;;;;;;;8.77;3.80;;;15.70;1.00;;;;;;4991417;28;20375;-57
2022/09/16 09:25:57;;;;;;;8.50;4.28;;;15.70;1.00;;;;;;4990294;28;20720;-56
2022/09/16 09:28:32;;;;;;;13.07;4.57;;;15.50;1.00;;;;;;4991321;28;20395;-56
2022/09/16 09:31:24;;;;;;;9.82;4.45;;;15.30;1.00;;;;;;4991995;28;20970;-57
2022/09/16 09:34:02;;;;;;;9.18;4.63;;;15.10;1.00;;;;;;4990612;28;20848;-58
2022/09/16 09:36:55;;;;;;;10.50;4.70;;;15.20;55.00;;;;;;4990813;28;20735;-56
2022/09/16 09:39:30;;;;;;;9.05;4.40;;;15.30;97.90;;;;;;4991451;28;20784;-56
2022/09/16 09:42:04;;;;;;;11.20;4.70;;;15.30;45.20;;;;;;4991750;28;20382;-57
2022/09/16 09:44:46;;;;;;;8.90;4.22;;;15.30;1.00;;;;;;4990727;28;20856;-56
2022/09/16 09:47:26;;;;;;;10.75;4.38;;;15.30;1.00;;;;;;4990880;28;20391;-57
2022/09/16 09:50:01;;;;;;;9.48;4.60;;;15.40;1.00;;;;;;4990671;28;20406;-56
2022/09/16 09:53:10;;;;;;;8.77;3.80;;;15.60;1.00;;;;;;4991318;28;20832;-57
2022/09/16 09:55:37;;;;;;;8.88;3.70;;;15.70;1.00;;;;;;4914267;28;20409;-57
2022/09/16 09:58:23;;;;;;;8.77;3.63;;;15.70;1.00;;;;;;4990966;28;20382;-56
2022/09/16 10:00:52;;;;;;;11.13;4.80;;;15.70;1.00;;;;;;4990511;28;20390;-56
2022/09/16 10:03:18;;;;;;;11.40;4.97;;;15.70;1.00;;;;;;4991019;28;20390;-57
2022/09/16 10:05:45;;;;;;;7.80;3.78;;;15.70;1.00;;;;;;4990660;28;20397;-56
2022/09/16 10:08:21;;;;;;;8.20;3.60;;;15.70;1.00;;;;;;4990858;28;20370;-57
2022/09/16 10:10:56;;;;;;;11.35;4.15;;;15.60;1.00;;;;;;4990298;28;20406;-54
2022/09/16 10:13:24;;;;;;;10.27;3.88;;;15.70;1.00;;;;;;4990691;28;20812;-55
2022/09/16 10:15:54;;;;;;;7.22;3.58;;;15.40;1.00;;;;;;4989905;28;20478;-55
2022/09/16 10:18:30;;;;;;;10.93;4.53;;;15.20;1.00;;;;;;4990437;28;20481;-55
2022/09/16 10:21:22;;;;;;;8.98;3.58;;;15.20;1.00;;;;;;4990199;28;20397;-54
2022/09/16 10:23:57;;;;;;;9.35;3.40;;;15.10;1.00;;;;;;4985130;28;20399;-54
2022/09/16 10:26:25;;;;;;;9.48;3.80;;;14.90;1.00;;;;;;4989936;28;20386;-55
2022/09/16 10:28:54;;;;;;;9.55;4.55;;;15.00;1.00;;;;;;4990023;28;20387;-54
2022/09/16 10:31:21;;;;;;;9.32;4.28;;;15.00;1.00;;;;;;4989982;28;20951;-54
2022/09/16 10:33:47;;;;;;;8.93;4.47;;;15.10;1.00;;;;;;4989475;28;20387;-54
2022/09/16 10:36:22;;;;;;;8.68;4.53;;;15.00;1.00;;;;;;4990920;28;20463;-55
2022/09/16 10:39:02;;;;;;;9.55;4.82;;;15.00;1.00;;;;;;4989947;28;20390;-55
2022/09/16 10:41:33;;;;;;;7.57;4.00;;;14.90;1.00;;;;;;4990025;28;20387;-55
2022/09/16 10:44:06;;;;;;;10.32;4.57;;;15.00;7.30;;;;;;4990254;28;20378;-54
2022/09/16 10:46:32;;;;;;;8.75;4.65;;;15.00;1.00;;;;;;4990016;28;20878;-56
2022/09/16 10:49:09;;;;;;;8.98;4.50;;;15.10;1.00;;;;;;4990920;28;20366;-55
2022/09/16 10:51:35;;;;;;;10.05;4.10;;;15.40;6.50;;;;;;4989313;28;20421;-54
2022/09/16 10:54:04;;;;;;;9.40;4.50;;;15.50;1.00;;;;;;4990261;28;20576;-55
2022/09/16 10:56:47;;;;;;;10.63;4.00;;;15.40;1.00;;;;;;4989373;28;20394;-54
2022/09/16 10:59:14;;;;;;;7.65;3.90;;;15.40;1.00;;;;;;4990455;28;20374;-54
2022/09/16 11:01:46;;;;;;;11.03;4.57;;;15.40;1.00;;;;;;4988910;28;20462;-55
2022/09/16 11:04:35;;;;;;;9.23;4.30;;;15.50;1.00;;;;;;4990028;28;20875;-55
2022/09/16 11:07:11;;;;;;;8.88;4.05;;;15.50;1.00;;;;;;4990801;28;20513;-55
2022/09/16 11:10:19;;;;;;;7.93;4.03;;;15.40;1.00;;;;;;4989698;28;20859;-55
2022/09/16 11:13:03;;;;;;;9.07;3.90;;;15.40;1.00;;;;;;4977826;28;20406;-56
2022/09/16 11:15:44;;;;;;;8.90;3.83;;;15.30;1.00;;;;;;4970838;28;20510;-55
2022/09/16 11:18:13;;;;;;;8.50;3.38;;;15.50;1.00;;;;;;4970478;28;20845;-56
2022/09/16 11:20:50;;;;;;;7.35;3.53;;;15.30;1.00;;;;;;4969986;28;20474;-56
2022/09/16 11:24:07;;;;;;;8.30;3.58;;;15.30;1.00;;;;;;4971013;28;20423;-55
2022/09/16 11:26:43;;;;;;;9.10;3.23;;;15.10;1.00;;;;;;4910028;28;20750;-56
2022/09/16 11:29:27;;;;;;;8.05;3.38;;;15.00;1.00;;;;;;4971021;28;20385;-56
2022/09/16 11:31:53;;;;;;;8.48;3.22;;;15.10;1.00;;;;;;4970443;28;20428;-57
2022/09/16 11:34:43;;;;;;;8.50;3.60;;;15.30;1.00;;;;;;4970528;28;20427;-56
2022/09/16 11:37:26;;;;;;;10.30;3.67;;;15.30;1.00;;;;;;4970628;28;20424;-56
2022/09/16 11:40:17;;;;;;;10.20;3.97;;;15.30;99.90;;;;;;4973639;28;20384;-56
2022/09/16 11:43:20;;;;;;;10.57;3.70;;;15.30;1.00;;;;;;4973249;28;20391;-56
2022/09/16 11:45:45;;;;;;;7.97;3.50;;;15.40;1.00;;;;;;4973618;28;20875;-56
2022/09/16 11:48:30;;;;;;;7.30;3.50;;;17.00;1.00;;;;;;4973756;28;20389;-56
2022/09/16 11:51:22;;;;;;;7.80;3.10;;;15.40;1.00;;;;;;4974087;28;20873;-56
2022/09/16 11:54:40;;;;;;;7.80;3.00;;;15.60;99.90;;;;;;4973587;28;20389;-56
2022/09/16 11:57:11;;;;;;;9.20;3.00;;;15.70;99.90;;;;;;4898011;28;20487;-56
2022/09/16 11:59:46;;;;;;;9.70;2.80;;;16.10;99.90;;;;;;4972797;28;20578;-55
2022/09/16 12:02:43;;;;;;;7.72;2.33;;;16.40;99.90;;;;;;4973482;28;20428;-56
2022/09/16 12:05:26;;;;;;;7.75;2.35;;;16.60;1.00;;;;;;4973379;28;20391;-55
2022/09/16 12:08:21;;;;;;;8.20;2.20;;;16.90;99.90;;;;;;4972550;28;20376;-56
2022/09/16 12:10:56;;;;;;;6.30;1.90;;;17.00;99.90;;;;;;4972591;28;20909;-56
2022/09/16 12:13:27;;;;;;;6.60;2.20;;;17.10;1.00;;;;;;4978008;28;20386;-56
2022/09/16 12:15:57;;;;;;;7.65;2.13;;;16.90;99.90;;;;;;4991945;28;20388;-56
2022/09/16 12:18:36;;;;;;;8.50;2.40;;;16.60;1.00;;;;;;4992834;28;20872;-56
2022/09/16 12:21:13;;;;;;;7.40;2.35;;;16.40;1.00;;;;;;4992762;28;20808;-57
2022/09/16 12:23:59;;;;;;;7.35;2.40;;;16.60;1.00;;;;;;4991904;28;20379;-56
2022/09/16 12:26:47;;;;;;;8.40;2.47;;;17.20;34.00;;;;;;4984879;28;20390;-56
2022/09/16 12:29:32;;;;;;;10.23;2.97;;;17.80;1.00;;;;;;4992237;28;20445;-56
2022/09/16 12:32:23;;;;;;;8.75;2.60;;;17.50;99.90;;;;;;4992825;28;20418;-57
2022/09/16 12:35:04;;;;;;;7.43;2.28;;;17.40;99.90;;;;;;4990782;28;20445;-57
2022/09/16 12:37:48;;;;;;;6.50;1.92;;;17.50;99.90;;;;;;4992339;28;20382;-57
2022/09/16 12:40:23;;;;;;;7.97;2.00;;;17.60;99.90;;;;;;4992160;28;20389;-57
2022/09/16 12:43:06;;;;;;;6.50;1.90;;;17.60;52.90;;;;;;4991521;28;20394;-56
2022/09/16 12:46:22;;;;;;;6.07;1.90;;;17.70;1.00;;;;;;4991334;28;20746;-56
2022/09/16 12:49:03;;;;;;;8.93;1.75;;;18.20;1.00;;;;;;4958154;28;20399;-57
2022/09/16 12:51:59;;;;;;;7.00;1.87;;;17.90;1.00;;;;;;4992250;28;20410;-57
2022/09/16 12:54:33;;;;;;;7.30;2.00;;;18.40;1.00;;;;;;4991915;28;20847;-54
2022/09/16 12:57:14;;;;;;;6.93;2.00;;;18.50;1.00;;;;;;4992088;28;20446;-54
2022/09/16 13:00:28;;;;;;;6.50;2.00;;;18.40;1.00;;;;;;4991550;28;20395;-55
2022/09/16 13:03:05;;;;;;;8.70;1.75;;;18.40;1.00;;;;;;4978966;28;20464;-55
2022/09/16 13:05:36;;;;;;;6.18;2.00;;;18.70;1.00;;;;;;4991579;28;20852;-54
2022/09/16 13:08:17;;;;;;;10.40;2.23;;;18.50;1.00;;;;;;4992373;28;20389;-55
2022/09/16 13:10:43;;;;;;;6.80;1.90;;;18.50;1.00;;;;;;4990688;28;20421;-55
2022/09/16 13:13:19;;;;;;;6.20;1.70;;;18.60;1.00;;;;;;4991608;28;20386;-55
2022/09/16 13:15:54;;;;;;;8.40;2.30;;;18.70;1.00;;;;;;4991086;28;20881;-55
2022/09/16 13:18:25;;;;;;;6.00;2.10;;;18.40;1.00;;;;;;4992068;28;20379;-55